createdAt,value
2018-08-23T00:01:30.235Z,79.80
2018-08-23T00:04:04.496Z,79.60
2018-08-23T00:06:31.754Z,80.60
2018-08-23T00:08:58.986Z,80.00
2018-08-23T00:11:30.902Z,80.20
2018-08-23T00:13:58.177Z,80.70
2018-08-23T00:16:33.445Z,80.10
2018-08-23T00:19:01.644Z,80.40
2018-08-23T00:21:29.102Z,80.50
2018-08-23T00:24:05.162Z,80.20
2018-08-23T00:26:32.398Z,80.80
2018-08-23T00:28:59.647Z,80.90
2018-08-23T00:31:26.881Z,81.30
2018-08-23T00:33:54.107Z,81.10
2018-08-23T00:36:21.362Z,81.00
2018-08-23T00:38:48.593Z,81.00
2018-08-23T00:41:15.822Z,81.40
2018-08-23T00:43:43.064Z,81.60
2018-08-23T00:46:14.121Z,82.20
2018-08-23T00:48:41.440Z,81.40
2018-08-23T00:51:08.675Z,82.10
2018-08-23T00:53:36.690Z,81.80
2018-08-23T00:56:17.678Z,81.80
2018-08-23T00:59:16.703Z,82.10
2018-08-23T01:01:52.253Z,81.90
2018-08-23T01:04:20.438Z,82.20
2018-08-23T01:06:47.672Z,82.70
2018-08-23T01:09:15.158Z,82.20
2018-08-23T01:11:44.997Z,82.80
2018-08-23T01:14:12.226Z,82.70
2018-08-23T01:16:39.570Z,82.30
2018-08-23T01:19:12.626Z,83.20
2018-08-23T01:21:46.557Z,82.50
2018-08-23T01:24:13.814Z,82.80
2018-08-23T01:26:41.047Z,82.60
2018-08-23T01:29:21.909Z,82.80
2018-08-23T01:31:49.181Z,82.60
2018-08-23T01:34:16.414Z,83.20
2018-08-23T01:36:43.627Z,83.10
2018-08-23T01:39:11.406Z,83.20
2018-08-23T01:41:38.664Z,83.00
2018-08-23T01:44:05.947Z,83.30
2018-08-23T01:46:42.790Z,83.30
2018-08-23T01:49:10.077Z,83.50
2018-08-23T01:51:37.344Z,83.70
2018-08-23T01:54:04.669Z,83.50
2018-08-23T01:56:32.171Z,83.30
2018-08-23T01:58:59.480Z,83.70
2018-08-23T02:01:26.758Z,84.10
2018-08-23T02:03:54.022Z,83.20
2018-08-23T02:06:24.978Z,83.50
2018-08-23T02:08:52.252Z,84.20
2018-08-23T02:11:19.508Z,84.40
2018-08-23T02:13:47.942Z,84.30
2018-08-23T02:16:15.222Z,84.00
2018-08-23T02:18:42.491Z,84.10
2018-08-23T02:21:10.584Z,83.80
2018-08-23T02:23:52.184Z,84.40
2018-08-23T02:26:19.445Z,84.20
2018-08-23T02:28:48.739Z,84.10
2018-08-23T02:31:16.098Z,84.30
2018-08-23T02:33:43.358Z,84.20
2018-08-23T02:36:17.883Z,84.30
2018-08-23T02:38:51.364Z,84.60
2018-08-23T02:41:18.625Z,84.30
2018-08-23T02:43:46.254Z,84.70
2018-08-23T02:46:13.531Z,85.10
2018-08-23T02:48:40.777Z,85.20
2018-08-23T02:51:08.198Z,85.00
2018-08-23T02:53:37.219Z,85.30
2018-08-23T02:56:06.808Z,84.90
2018-08-23T02:58:46.247Z,85.40
2018-08-23T03:01:13.536Z,85.20
2018-08-23T03:03:53.009Z,85.10
2018-08-23T03:06:26.602Z,85.10
2018-08-23T03:08:53.910Z,85.00
2018-08-23T03:11:21.220Z,85.20
2018-08-23T03:13:48.488Z,85.50
2018-08-23T03:16:15.768Z,85.00
2018-08-23T03:18:43.026Z,85.50
2018-08-23T03:21:10.284Z,85.40
2018-08-23T03:23:37.610Z,84.90
2018-08-23T03:26:04.902Z,85.50
2018-08-23T03:28:33.666Z,85.30
2018-08-23T03:31:02.134Z,85.40
2018-08-23T03:33:30.632Z,85.30
2018-08-23T03:35:57.895Z,85.40
2018-08-23T03:38:25.184Z,85.70
2018-08-23T03:40:52.422Z,86.20
2018-08-23T03:43:19.700Z,86.00
2018-08-23T03:45:46.958Z,85.80
2018-08-23T03:48:14.210Z,85.90
2018-08-23T03:50:53.369Z,85.90
2018-08-23T03:53:21.298Z,86.10
2018-08-23T03:56:03.575Z,86.40
2018-08-23T03:58:30.860Z,86.30
2018-08-23T04:01:04.704Z,85.80
2018-08-23T04:03:32.186Z,85.90
2018-08-23T04:06:15.701Z,85.90
2018-08-23T04:08:44.687Z,85.80
2018-08-23T04:11:11.943Z,85.90
2018-08-23T04:13:39.233Z,87.00
2018-08-23T04:16:06.545Z,86.10
2018-08-23T04:18:33.844Z,86.20
2018-08-23T04:21:01.116Z,86.00
2018-08-23T04:23:28.382Z,86.10
2018-08-23T04:25:55.636Z,86.40
2018-08-23T04:28:22.918Z,86.10
2018-08-23T04:30:50.173Z,86.60
2018-08-23T04:33:17.458Z,86.40
2018-08-23T04:35:44.738Z,86.60
2018-08-23T04:38:11.986Z,86.90
2018-08-23T04:40:44.812Z,86.40
2018-08-23T04:43:12.106Z,86.90
2018-08-23T04:45:39.376Z,87.30
2018-08-23T04:48:07.683Z,87.20
2018-08-23T04:50:35.347Z,87.60
2018-08-23T04:53:02.708Z,87.40
2018-08-23T04:55:29.986Z,87.50
2018-08-23T04:57:58.125Z,87.70
2018-08-23T05:00:25.979Z,87.70
2018-08-23T05:02:53.264Z,87.40
2018-08-23T05:05:20.541Z,87.40
2018-08-23T05:07:47.828Z,87.30
2018-08-23T05:10:15.096Z,87.70
2018-08-23T05:12:42.361Z,87.50
2018-08-23T05:15:09.668Z,87.80
2018-08-23T05:17:36.974Z,87.70
2018-08-23T05:20:04.287Z,87.90
2018-08-23T05:22:31.584Z,87.70
2018-08-23T05:25:04.363Z,88.10
2018-08-23T05:27:32.207Z,87.90
2018-08-23T05:29:59.503Z,88.00
2018-08-23T05:32:26.750Z,88.50
2018-08-23T05:34:54.010Z,88.20
2018-08-23T05:37:21.304Z,88.00
2018-08-23T05:39:49.702Z,87.70
2018-08-23T05:43:20.399Z,87.50
2018-08-23T05:45:49.138Z,86.30
2018-08-23T05:48:22.602Z,86.10
2018-08-23T05:50:49.936Z,85.70
2018-08-23T05:53:17.934Z,86.40
2018-08-23T05:55:47.054Z,85.20
2018-08-23T05:58:18.802Z,84.70
2018-08-23T06:00:46.178Z,84.70
2018-08-23T06:03:14.632Z,84.90
2018-08-23T06:05:41.946Z,84.20
2018-08-23T06:08:09.476Z,83.70
2018-08-23T06:10:36.736Z,82.80
2018-08-23T06:13:04.054Z,83.30
2018-08-23T06:15:31.670Z,82.80
2018-08-23T06:17:58.922Z,80.90
2018-08-23T06:20:26.191Z,81.00
2018-08-23T06:22:53.484Z,81.60
2018-08-23T06:25:20.739Z,82.20
2018-08-23T06:27:47.982Z,82.80
2018-08-23T06:30:15.256Z,82.00
2018-08-23T06:32:44.105Z,83.30
2018-08-23T06:35:11.315Z,82.50
2018-08-23T06:37:39.156Z,80.70
2018-08-23T06:40:06.512Z,81.10
2018-08-23T06:42:44.664Z,79.50
2018-08-23T06:45:11.988Z,76.00
2018-08-23T06:47:40.845Z,77.10
2018-08-23T06:50:08.140Z,75.00
2018-08-23T06:52:40.946Z,74.40
2018-08-23T06:55:13.767Z,74.50
2018-08-23T06:57:43.606Z,73.30
2018-08-23T07:00:11.022Z,72.20
2018-08-23T07:02:43.868Z,70.80
2018-08-23T07:05:11.134Z,70.90
2018-08-23T07:07:38.400Z,69.90
2018-08-23T07:10:05.695Z,69.00
2018-08-23T07:12:32.965Z,69.30
2018-08-23T07:15:00.232Z,68.10
2018-08-23T07:17:27.860Z,66.70
2018-08-23T07:19:59.180Z,64.80
2018-08-23T07:22:26.495Z,64.80
2018-08-23T07:24:55.322Z,63.90
2018-08-23T07:27:22.905Z,62.40
2018-08-23T07:29:51.275Z,60.00
2018-08-23T07:32:19.694Z,58.60
2018-08-23T07:35:28.466Z,58.70
2018-08-23T07:37:55.717Z,57.50
2018-08-23T07:40:23.890Z,55.80
2018-08-23T07:42:52.509Z,55.30
2018-08-23T07:45:19.773Z,53.90
2018-08-23T07:47:48.624Z,52.90
2018-08-23T07:50:15.940Z,52.00
2018-08-23T07:52:44.670Z,51.70
2018-08-23T07:55:11.986Z,50.60
2018-08-23T07:57:39.752Z,49.70
2018-08-23T08:00:56.779Z,49.80
2018-08-23T08:03:24.074Z,49.10
2018-08-23T08:05:51.339Z,47.40
2018-08-23T08:08:18.624Z,48.00
2018-08-23T08:10:45.962Z,47.20
2018-08-23T08:13:13.247Z,46.90
2018-08-23T08:15:40.542Z,47.40
2018-08-23T08:18:15.084Z,46.40
2018-08-23T08:20:46.969Z,43.80
2018-08-23T08:23:14.818Z,45.10
2018-08-23T08:25:42.080Z,44.30
2018-08-23T08:28:13.592Z,43.60
2018-08-23T08:30:42.690Z,42.70
2018-08-23T08:33:12.767Z,41.90
2018-08-23T08:35:41.873Z,42.40
2018-08-23T08:38:09.444Z,42.40
2018-08-23T08:40:36.752Z,42.30
2018-08-23T08:43:04.480Z,41.70
2018-08-23T08:45:31.740Z,41.40
2018-08-23T08:48:10.500Z,40.90
2018-08-23T08:50:43.583Z,40.50
2018-08-23T08:53:10.892Z,40.50
2018-08-23T08:55:38.252Z,40.30
2018-08-23T08:58:07.555Z,40.10
2018-08-23T09:00:50.799Z,39.10
2018-08-23T09:03:18.650Z,38.60
2018-08-23T09:05:46.130Z,39.00
2018-08-23T09:08:13.408Z,39.40
2018-08-23T09:10:40.671Z,38.80
2018-08-23T09:13:07.968Z,39.40
2018-08-23T09:15:35.248Z,39.30
2018-08-23T09:18:02.538Z,39.10
2018-08-23T09:20:29.949Z,38.70
2018-08-23T09:22:57.171Z,39.00
2018-08-23T09:25:27.284Z,39.40
2018-08-23T09:27:54.571Z,40.00
2018-08-23T09:30:29.988Z,39.80
2018-08-23T09:33:01.882Z,39.60
2018-08-23T09:35:29.980Z,38.80
2018-08-23T09:37:58.177Z,38.20
2018-08-23T09:40:26.141Z,38.00
2018-08-23T09:42:53.463Z,37.40
2018-08-23T09:45:20.714Z,36.90
2018-08-23T09:47:47.993Z,37.00
2018-08-23T09:50:15.271Z,35.70
2018-08-23T09:52:46.006Z,36.00
2018-08-23T09:55:14.559Z,36.00
2018-08-23T09:57:42.455Z,36.20
2018-08-23T10:00:10.966Z,36.80
2018-08-23T10:04:51.335Z,37.30
2018-08-23T10:07:24.237Z,37.60
2018-08-23T10:09:57.032Z,38.20
2018-08-23T10:12:30.092Z,38.10
2018-08-23T10:15:03.009Z,38.30
2018-08-23T10:17:35.868Z,38.70
2018-08-23T10:20:08.732Z,38.70
2018-08-23T10:22:41.764Z,38.30
2018-08-23T10:25:26.264Z,37.30
2018-08-23T10:27:53.514Z,37.10
2018-08-23T10:30:20.795Z,36.10
2018-08-23T10:32:48.068Z,35.10
2018-08-23T10:35:15.326Z,34.60
2018-08-23T10:37:42.617Z,34.60
2018-08-23T10:40:09.914Z,34.80
2018-08-23T10:42:37.178Z,34.30
2018-08-23T10:45:04.535Z,34.10
2018-08-23T10:48:34.892Z,34.30
2018-08-23T10:51:02.244Z,33.90
2018-08-23T10:53:29.512Z,33.20
2018-08-23T10:55:56.788Z,33.40
2018-08-23T10:58:24.071Z,33.30
2018-08-23T11:00:51.346Z,32.50
2018-08-23T11:03:18.663Z,33.00
2018-08-23T11:05:45.944Z,32.50
2018-08-23T11:08:18.090Z,33.00
2018-08-23T11:10:50.924Z,33.10
2018-08-23T11:13:23.930Z,32.30
2018-08-23T11:15:55.781Z,32.30
2018-08-23T11:18:28.811Z,32.00
2018-08-23T11:20:56.074Z,32.10
2018-08-23T11:23:23.443Z,32.00
2018-08-23T11:25:50.728Z,31.70
2018-08-23T11:28:21.234Z,31.40
2018-08-23T11:30:48.991Z,31.70
2018-08-23T11:33:16.337Z,31.60
2018-08-23T11:35:43.585Z,31.00
2018-08-23T11:38:10.915Z,31.00
2018-08-23T11:40:38.231Z,31.20
2018-08-23T11:43:05.558Z,31.10
2018-08-23T11:45:32.859Z,31.10
2018-08-23T11:48:00.152Z,30.30
2018-08-23T11:50:27.466Z,30.50
2018-08-23T11:52:54.812Z,30.50
2018-08-23T11:55:22.102Z,30.80
2018-08-23T11:57:49.855Z,30.70
2018-08-23T12:00:17.616Z,30.00
2018-08-23T12:02:44.879Z,30.10
2018-08-23T12:05:13.724Z,30.60
2018-08-23T12:07:47.323Z,31.00
2018-08-23T12:10:16.303Z,31.30
2018-08-23T12:12:44.238Z,31.30
2018-08-23T12:15:11.523Z,31.20
2018-08-23T12:17:39.540Z,31.10
2018-08-23T12:20:07.756Z,30.80
2018-08-23T12:22:42.068Z,30.40
2018-08-23T12:25:10.840Z,30.00
2018-08-23T12:27:38.819Z,29.50
2018-08-23T12:30:06.691Z,29.00
2018-08-23T12:32:34.680Z,28.70
2018-08-23T12:35:02.118Z,28.30
2018-08-23T12:37:35.056Z,28.00
2018-08-23T12:40:08.005Z,27.60
2018-08-23T12:42:40.960Z,27.20
2018-08-23T12:45:08.235Z,26.90
2018-08-23T12:47:35.539Z,26.80
2018-08-23T12:50:02.968Z,26.70
2018-08-23T12:52:30.583Z,26.80
2018-08-23T12:54:57.876Z,26.70
2018-08-23T12:57:25.242Z,27.10
2018-08-23T12:59:52.552Z,26.70
2018-08-23T13:02:19.902Z,27.30
2018-08-23T13:04:47.250Z,27.30
2018-08-23T13:07:14.544Z,27.20
2018-08-23T13:09:41.976Z,27.30
2018-08-23T13:12:09.262Z,26.90
2018-08-23T13:14:36.544Z,27.00
2018-08-23T13:17:03.868Z,27.20
2018-08-23T13:19:31.167Z,27.40
2018-08-23T13:22:00.270Z,27.30
2018-08-23T13:24:27.548Z,27.80
2018-08-23T13:26:54.823Z,27.80
2018-08-23T13:29:22.130Z,28.30
2018-08-23T13:31:49.417Z,28.60
2018-08-23T13:34:16.808Z,29.70
2018-08-23T13:36:44.107Z,29.10
2018-08-23T13:39:12.582Z,29.40
2018-08-23T13:41:39.838Z,30.20
2018-08-23T13:44:07.116Z,29.70
2018-08-23T13:46:34.416Z,29.70
2018-08-23T13:49:02.003Z,30.00
2018-08-23T13:51:29.288Z,30.30
2018-08-23T13:53:56.794Z,30.40
2018-08-23T13:56:24.562Z,30.50
2018-08-23T13:58:52.368Z,31.10
2018-08-23T14:01:24.017Z,31.20
2018-08-23T14:03:51.578Z,32.30
2018-08-23T14:06:18.903Z,32.30
2018-08-23T14:08:46.149Z,32.70
2018-08-23T14:11:13.481Z,33.10
2018-08-23T14:13:40.707Z,32.30
2018-08-23T14:16:08.025Z,32.10
2018-08-23T14:18:35.323Z,31.70
2018-08-23T14:21:02.647Z,31.60
2018-08-23T14:23:29.919Z,31.60
2018-08-23T14:25:57.192Z,31.50
2018-08-23T14:28:24.492Z,31.50
2018-08-23T14:30:51.843Z,31.30
2018-08-23T14:33:19.154Z,31.40
2018-08-23T14:35:46.452Z,31.90
2018-08-23T14:38:13.733Z,32.00
2018-08-23T14:40:41.002Z,32.60
2018-08-23T14:43:08.304Z,32.70
2018-08-23T14:45:35.609Z,32.90
2018-08-23T14:48:08.425Z,32.90
2018-08-23T14:50:35.968Z,33.30
2018-08-23T14:53:04.174Z,33.90
2018-08-23T14:55:37.141Z,34.10
2018-08-23T14:58:04.598Z,33.90
2018-08-23T15:00:31.920Z,33.80
2018-08-23T15:02:59.310Z,34.10
2018-08-23T15:05:26.648Z,33.90
2018-08-23T15:07:53.897Z,34.00
2018-08-23T15:10:21.176Z,34.00
2018-08-23T15:12:48.438Z,35.20
2018-08-23T15:15:15.788Z,35.00
2018-08-23T15:17:42.979Z,35.00
2018-08-23T15:20:10.242Z,35.70
2018-08-23T15:22:37.494Z,35.80
2018-08-23T15:25:05.151Z,35.60
2018-08-23T15:27:32.766Z,36.20
2018-08-23T15:30:00.843Z,36.00
2018-08-23T15:32:28.098Z,36.40
2018-08-23T15:34:55.364Z,37.00
2018-08-23T15:37:22.654Z,37.00
2018-08-23T15:39:49.911Z,37.20
2018-08-23T15:42:17.180Z,37.10
2018-08-23T15:44:44.452Z,38.00
2018-08-23T15:47:11.748Z,37.20
2018-08-23T15:49:39.032Z,37.50
2018-08-23T15:52:06.436Z,38.10
2018-08-23T15:54:33.795Z,37.90
2018-08-23T15:57:01.084Z,38.20
2018-08-23T15:59:28.355Z,38.40
2018-08-23T16:01:55.623Z,38.90
2018-08-23T16:04:22.884Z,39.10
2018-08-23T16:06:50.196Z,39.00
2018-08-23T16:09:17.473Z,39.40
2018-08-23T16:11:44.757Z,40.20
2018-08-23T16:14:12.022Z,40.40
2018-08-23T16:16:44.830Z,40.60
2018-08-23T16:19:17.716Z,40.90
2018-08-23T16:21:49.587Z,41.20
2018-08-23T16:24:17.076Z,41.80
2018-08-23T16:26:50.175Z,42.90
2018-08-23T16:29:17.421Z,42.50
2018-08-23T16:31:44.712Z,42.30
2018-08-23T16:34:11.978Z,42.60
2018-08-23T16:36:39.240Z,43.30
2018-08-23T16:39:07.208Z,43.80
2018-08-23T16:41:34.547Z,43.60
2018-08-23T16:44:01.834Z,43.80
2018-08-23T16:46:29.200Z,44.20
2018-08-23T16:48:56.470Z,44.40
2018-08-23T16:51:23.782Z,44.60
2018-08-23T16:53:51.096Z,45.30
2018-08-23T16:56:19.159Z,45.40
2018-08-23T16:58:46.436Z,45.60
2018-08-23T17:01:13.706Z,45.50
2018-08-23T17:03:40.946Z,46.80
2018-08-23T17:06:08.327Z,46.00
2018-08-23T17:08:35.595Z,46.70
2018-08-23T17:11:02.964Z,46.60
2018-08-23T17:13:36.442Z,48.10
2018-08-23T17:16:10.135Z,47.60
2018-08-23T17:18:37.501Z,47.70
2018-08-23T17:21:04.796Z,48.10
2018-08-23T17:23:32.048Z,48.40
2018-08-23T17:25:59.321Z,49.30
2018-08-23T17:28:26.590Z,48.90
2018-08-23T17:30:53.871Z,49.00
2018-08-23T17:33:21.325Z,49.20
2018-08-23T17:35:48.586Z,49.20
2018-08-23T17:38:15.899Z,50.20
2018-08-23T17:40:43.157Z,50.50
2018-08-23T17:43:10.416Z,50.10
2018-08-23T17:45:37.666Z,50.40
2018-08-23T17:48:05.021Z,50.60
2018-08-23T17:50:32.254Z,51.00
2018-08-23T17:52:59.552Z,50.80
2018-08-23T17:55:26.818Z,51.40
2018-08-23T17:57:54.051Z,51.40
2018-08-23T18:00:21.378Z,51.40
2018-08-23T18:02:48.682Z,51.90
2018-08-23T18:05:15.934Z,52.90
2018-08-23T18:07:43.258Z,52.50
2018-08-23T18:10:10.527Z,52.40
2018-08-23T18:12:37.794Z,52.70
2018-08-23T18:15:07.984Z,52.70
2018-08-23T18:17:35.264Z,52.80
2018-08-23T18:20:02.657Z,53.20
2018-08-23T18:22:29.949Z,53.40
2018-08-23T18:24:57.240Z,53.30
2018-08-23T18:27:24.517Z,53.60
2018-08-23T18:29:51.781Z,53.60
2018-08-23T18:32:19.135Z,54.20
2018-08-23T18:34:46.328Z,54.20
2018-08-23T18:37:13.629Z,53.90
2018-08-23T18:39:40.909Z,54.80
2018-08-23T18:42:08.384Z,54.60
2018-08-23T18:44:35.673Z,54.80
2018-08-23T18:47:02.955Z,55.10
2018-08-23T18:49:30.234Z,55.10
2018-08-23T18:51:57.572Z,55.90
2018-08-23T18:54:24.856Z,55.90
2018-08-23T18:56:52.158Z,55.90
2018-08-23T18:59:19.451Z,55.90
2018-08-23T19:01:46.720Z,56.30
2018-08-23T19:04:14.010Z,56.50
2018-08-23T19:06:41.292Z,56.90
2018-08-23T19:09:11.016Z,57.40
2018-08-23T19:11:38.280Z,57.90
2018-08-23T19:14:05.580Z,58.30
2018-08-23T19:16:38.462Z,58.30
2018-08-23T19:19:06.092Z,58.70
2018-08-23T19:21:33.279Z,58.90
2018-08-23T19:24:00.548Z,59.90
2018-08-23T19:26:27.821Z,60.40
2018-08-23T19:28:55.160Z,60.00
2018-08-23T19:31:22.447Z,60.80
2018-08-23T19:33:49.699Z,61.20
2018-08-23T19:36:16.958Z,61.70
2018-08-23T19:38:44.270Z,62.20
2018-08-23T19:41:11.543Z,62.50
2018-08-23T19:43:38.833Z,62.90
2018-08-23T19:46:11.724Z,63.00
2018-08-23T19:48:39.571Z,63.30
2018-08-23T19:51:07.105Z,63.10
2018-08-23T19:53:34.404Z,64.50
2018-08-23T19:56:01.700Z,64.20
2018-08-23T19:58:28.999Z,63.80
2018-08-23T20:00:56.281Z,64.40
2018-08-23T20:03:23.566Z,64.80
2018-08-23T20:05:50.864Z,65.30
2018-08-23T20:08:18.248Z,64.80
2018-08-23T20:10:45.552Z,64.70
2018-08-23T20:13:12.834Z,64.50
2018-08-23T20:15:40.126Z,65.70
2018-08-23T20:18:07.435Z,64.70
2018-08-23T20:20:34.731Z,64.70
2018-08-23T20:23:02.017Z,65.00
2018-08-23T20:25:29.275Z,65.00
2018-08-23T20:27:56.580Z,66.20
2018-08-23T20:30:23.892Z,65.70
2018-08-23T20:32:51.168Z,66.10
2018-08-23T20:35:18.531Z,66.20
2018-08-23T20:37:45.814Z,66.60
2018-08-23T20:40:13.124Z,66.20
2018-08-23T20:42:40.417Z,66.80
2018-08-23T20:45:07.731Z,66.50
2018-08-23T20:47:34.997Z,66.70
2018-08-23T20:50:02.334Z,67.00
2018-08-23T20:52:29.590Z,67.10
2018-08-23T20:54:56.892Z,67.10
2018-08-23T20:57:24.196Z,67.20
2018-08-23T20:59:51.463Z,67.60
2018-08-23T21:02:18.733Z,67.60
2018-08-23T21:04:46.024Z,67.90
2018-08-23T21:07:13.322Z,68.40
2018-08-23T21:09:40.606Z,68.20
2018-08-23T21:12:07.984Z,68.40
2018-08-23T21:14:35.250Z,68.10
2018-08-23T21:17:02.529Z,68.50
2018-08-23T21:19:29.848Z,68.60
2018-08-23T21:21:57.123Z,69.10
2018-08-23T21:24:24.463Z,69.40
2018-08-23T21:26:51.732Z,69.40
2018-08-23T21:29:19.026Z,69.30
2018-08-23T21:31:46.316Z,69.70
2018-08-23T21:34:13.592Z,70.30
2018-08-23T21:36:40.860Z,70.80
2018-08-23T21:39:08.955Z,71.00
2018-08-23T21:41:36.262Z,72.10
2018-08-23T21:44:03.982Z,71.70
2018-08-23T21:46:31.279Z,72.00
2018-08-23T21:48:58.559Z,72.20
2018-08-23T21:51:25.882Z,72.20
2018-08-23T21:53:53.158Z,72.50
2018-08-23T21:56:20.419Z,72.40
2018-08-23T21:58:47.723Z,73.00
2018-08-23T22:01:15.011Z,73.30
2018-08-23T22:03:42.320Z,73.20
2018-08-23T22:06:09.622Z,72.90
2018-08-23T22:08:36.944Z,73.70
2018-08-23T22:11:04.387Z,73.90
2018-08-23T22:13:37.366Z,73.50
2018-08-23T22:16:04.716Z,73.80
2018-08-23T22:18:32.041Z,73.80
2018-08-23T22:20:59.342Z,73.80
2018-08-23T22:23:26.638Z,74.30
2018-08-23T22:25:53.912Z,74.60
2018-08-23T22:28:21.218Z,74.60
2018-08-23T22:30:48.539Z,74.90
2018-08-23T22:33:15.835Z,74.40
2018-08-23T22:35:43.104Z,74.60
2018-08-23T22:38:10.677Z,74.80
2018-08-23T22:40:38.166Z,74.80
2018-08-23T22:43:05.650Z,74.70
2018-08-23T22:45:32.986Z,75.50
2018-08-23T22:48:00.355Z,75.00
2018-08-23T22:50:27.661Z,75.60
2018-08-23T22:52:55.114Z,75.20
2018-08-23T22:55:22.408Z,75.30
2018-08-23T22:57:49.676Z,75.50
2018-08-23T23:00:17.032Z,76.00
2018-08-23T23:02:44.342Z,75.60
2018-08-23T23:05:11.719Z,76.20
2018-08-23T23:07:38.973Z,75.70
2018-08-23T23:10:06.861Z,75.80
2018-08-23T23:12:34.215Z,75.80
2018-08-23T23:15:05.415Z,75.90
2018-08-23T23:17:32.753Z,76.30
2018-08-23T23:20:00.064Z,76.10
2018-08-23T23:22:27.332Z,76.00
2018-08-23T23:25:01.358Z,76.30
2018-08-23T23:27:28.835Z,76.60
2018-08-23T23:29:56.394Z,76.70
2018-08-23T23:32:23.692Z,76.90
2018-08-23T23:34:51.011Z,76.70
2018-08-23T23:37:18.259Z,76.50
2018-08-23T23:39:45.538Z,76.80
2018-08-23T23:42:12.838Z,77.00
2018-08-23T23:44:40.210Z,76.40
2018-08-23T23:47:07.408Z,76.50
2018-08-23T23:49:34.650Z,76.20
2018-08-23T23:52:01.925Z,75.90
2018-08-23T23:54:29.188Z,76.00
2018-08-23T23:56:56.468Z,76.00
2018-08-23T23:59:23.728Z,76.10
